Time;durP1;ratioP1;P1;durP2;ratioP2;P2;SDS_P1;SDS_P2;PMS_P1;PMS_P2;Temp;Humidity;BMP_temperature;BMP_pressure;BME280_temperature;BME280_humidity;BME280_pressure;Samples;Min_cycle;Max_cycle;Signal;HPM_P1;HPM_P2
2023/05/12 00:00:19;;;;;;;;;3.33;3.33;;;;;-147.47;100.00;64613.53;4991297;28;45857;-79
2023/05/12 00:02:44;;;;;;;;;2.00;2.00;;;;;-147.47;100.00;64613.53;5014578;28;46215;-81
2023/05/12 00:05:10;;;;;;;;;0.67;0.67;;;;;-147.47;100.00;64613.53;5012096;28;45755;-81
2023/05/12 00:07:35;;;;;;;;;2.00;0.67;;;;;-147.47;100.00;64613.53;5011745;28;45945;-82
2023/05/12 00:10:01;;;;;;;;;2.00;0.67;;;;;-147.47;100.00;64613.53;5013314;28;45394;-81
2023/05/12 00:12:27;;;;;;;;;1.67;0.67;;;;;-147.47;100.00;64613.53;5011290;28;48460;-80
2023/05/12 00:14:53;;;;;;;;;1.00;1.00;;;;;-147.47;100.00;64613.53;5013418;28;45348;-80
2023/05/12 00:17:18;;;;;;;;;3.33;2.00;;;;;-147.47;100.00;64613.53;5015095;28;45438;-80
2023/05/12 00:19:44;;;;;;;;;4.67;1.67;;;;;-147.47;100.00;64613.53;5014674;28;45747;-82
2023/05/12 00:22:10;;;;;;;;;1.33;1.33;;;;;-147.47;100.00;64613.53;5014666;28;45371;-84
2023/05/12 00:24:36;;;;;;;;;3.00;1.00;;;;;-147.47;100.00;64613.53;5016454;28;45384;-83
2023/05/12 00:27:01;;;;;;;;;5.33;2.00;;;;;-147.47;100.00;64613.53;5017415;28;45825;-83
2023/05/12 00:29:26;;;;;;;;;1.00;1.00;;;;;-147.47;100.00;64613.53;5017381;28;45731;-82
2023/05/12 00:31:52;;;;;;;;;1.67;1.00;;;;;-147.47;100.00;64613.53;5015516;28;46272;-82
2023/05/12 00:34:17;;;;;;;;;2.00;2.00;;;;;-147.47;100.00;64613.53;5011707;28;45956;-81
2023/05/12 00:36:43;;;;;;;;;1.00;1.00;;;;;-147.47;100.00;64613.53;5014545;28;45363;-82
2023/05/12 00:39:09;;;;;;;;;1.00;1.00;;;;;-147.47;100.00;64613.53;5018122;28;46042;-83
2023/05/12 00:41:34;;;;;;;;;2.33;1.00;;;;;-147.47;100.00;64613.53;5016855;28;47404;-82
2023/05/12 00:44:00;;;;;;;;;0.00;0.00;;;;;-147.47;100.00;64613.53;5016366;28;45469;-81
2023/05/12 00:46:26;;;;;;;;;2.00;1.00;;;;;-147.47;100.00;64613.53;5013873;28;45894;-80
2023/05/12 00:48:51;;;;;;;;;4.67;2.33;;;;;-147.47;100.00;64613.53;5012140;28;45461;-80
2023/05/12 00:51:17;;;;;;;;;1.33;0.00;;;;;-147.47;100.00;64613.53;5006529;28;45418;-81
2023/05/12 00:53:42;;;;;;;;;1.00;1.00;;;;;-147.47;100.00;64613.53;5019583;28;45443;-81
2023/05/12 00:56:16;;;;;;;;;4.00;2.00;;;;;-147.47;100.00;64613.53;4997186;28;45773;-84
2023/05/12 00:58:42;;;;;;;;;2.00;2.00;;;;;-147.47;100.00;64613.53;5023413;28;45407;-84
2023/05/12 01:01:08;;;;;;;;;2.00;2.00;;;;;-147.47;100.00;64613.53;5023020;28;45434;-83
2023/05/12 01:03:34;;;;;;;;;1.00;0.00;;;;;-147.47;100.00;64613.53;5016331;28;45867;-82
2023/05/12 01:06:12;;;;;;;;;1.33;1.33;;;;;-147.47;100.00;64613.53;5000581;28;45428;-81
2023/05/12 01:08:38;;;;;;;;;1.67;1.00;;;;;-147.47;100.00;64613.53;5014781;28;45475;-82
2023/05/12 01:11:03;;;;;;;;;1.33;1.33;;;;;-147.47;100.00;64613.53;5028763;28;47115;-82
2023/05/12 01:13:28;;;;;;;;;1.33;1.33;;;;;-147.47;100.00;64613.53;5014605;28;45534;-84
2023/05/12 01:15:55;;;;;;;;;0.33;0.33;;;;;-147.47;100.00;64613.53;5014913;28;45809;-80
2023/05/12 01:18:22;;;;;;;;;1.67;1.67;;;;;-147.47;100.00;64613.53;5013493;28;45892;-82
2023/05/12 01:20:50;;;;;;;;;1.00;1.00;;;;;-147.47;100.00;64613.53;5014129;28;46550;-81
2023/05/12 01:23:21;;;;;;;;;2.33;2.33;;;;;-147.47;100.00;64613.53;5011593;28;45498;-81
2023/05/12 01:25:49;;;;;;;;;2.33;2.33;;;;;-147.47;100.00;64613.53;5011782;28;45925;-80
2023/05/12 01:28:19;;;;;;;;;4.67;2.00;;;;;-147.47;100.00;64613.53;5011634;28;45756;-80
2023/05/12 01:30:45;;;;;;;;;1.00;1.00;;;;;-147.47;100.00;64613.53;4994606;28;48724;-80
2023/05/12 01:33:11;;;;;;;;;4.00;1.67;;;;;-147.47;100.00;64613.53;5017229;28;45875;-81
2023/05/12 01:35:38;;;;;;;;;2.33;1.33;;;;;-147.47;100.00;64613.53;4995313;28;45488;-81
2023/05/12 01:38:03;;;;;;;;;1.33;1.33;;;;;-147.47;100.00;64613.53;5012640;28;45795;-81
2023/05/12 01:40:29;;;;;;;;;0.67;0.00;;;;;-147.47;100.00;64613.53;5002968;28;46291;-80
2023/05/12 01:42:54;;;;;;;;;2.33;2.00;;;;;-147.47;100.00;64613.53;5012838;28;45556;-79
2023/05/12 01:45:20;;;;;;;;;3.00;3.00;;;;;-147.47;100.00;64613.53;4981968;28;45436;-78
2023/05/12 01:47:45;;;;;;;;;2.67;1.33;;;;;-147.47;100.00;64613.53;5005375;28;45875;-81
2023/05/12 01:50:11;;;;;;;;;7.33;2.00;;;;;-147.47;100.00;64613.53;5021528;28;47567;-82
2023/05/12 01:52:38;;;;;;;;;3.00;1.00;;;;;-147.47;100.00;64613.53;5005108;28;45620;-82
2023/05/12 01:55:04;;;;;;;;;3.00;1.67;;;;;-147.47;100.00;64613.53;5001098;28;45639;-83
2023/05/12 01:57:29;;;;;;;;;1.00;1.00;;;;;-147.47;100.00;64613.53;5013932;28;45895;-83
2023/05/12 01:59:55;;;;;;;;;4.00;2.00;;;;;-147.47;100.00;64613.53;5006138;28;48246;-82
2023/05/12 02:02:20;;;;;;;;;1.33;1.33;;;;;-147.47;100.00;64613.53;5013658;28;45448;-82
2023/05/12 02:04:47;;;;;;;;;4.00;3.00;;;;;-147.47;100.00;64613.53;5013412;28;45395;-81
2023/05/12 02:07:15;;;;;;;;;2.00;1.33;;;;;-147.47;100.00;64613.53;5014031;28;45837;-82
2023/05/12 02:09:40;;;;;;;;;5.00;1.00;;;;;-147.47;100.00;64613.53;4993849;28;45445;-83
2023/05/12 02:12:11;;;;;;;;;2.00;1.00;;;;;-147.47;100.00;64613.53;5016881;28;45754;-81
2023/05/12 02:14:37;;;;;;;;;1.67;1.67;;;;;-147.47;100.00;64613.53;4999348;28;45479;-82
2023/05/12 02:17:03;;;;;;;;;1.67;1.67;;;;;-147.47;100.00;64613.53;5014111;28;45870;-80
2023/05/12 02:19:31;;;;;;;;;1.67;1.67;;;;;-147.47;100.00;64613.53;5013076;28;46546;-80
2023/05/12 02:21:59;;;;;;;;;0.67;0.67;;;;;-147.47;100.00;64613.53;5013959;28;45411;-80
2023/05/12 02:24:45;;;;;;;;;;;;;;;;;;;;;
2023/05/12 02:27:11;;;;;;;;;2.33;2.00;;;;;-147.47;100.00;64613.53;5016770;28;73058;-82
2023/05/12 02:29:36;;;;;;;;;3.67;3.00;;;;;-147.47;100.00;64613.53;5018770;28;46198;-83
2023/05/12 02:32:03;;;;;;;;;6.33;1.33;;;;;-147.47;100.00;64613.53;5018135;28;45414;-81
2023/05/12 02:34:28;;;;;;;;;1.67;1.67;;;;;-147.47;100.00;64613.53;5012126;28;45680;-84
2023/05/12 02:36:54;;;;;;;;;2.00;0.33;;;;;-147.47;100.00;64613.53;5012441;28;45408;-81
2023/05/12 02:39:19;;;;;;;;;3.67;1.00;;;;;-147.47;100.00;64613.53;5012561;28;47203;-82
2023/05/12 02:41:45;;;;;;;;;6.67;2.00;;;;;-147.47;100.00;64613.53;4998156;28;46037;-82
2023/05/12 02:44:11;;;;;;;;;2.00;1.33;;;;;-147.47;100.00;64613.53;4992415;28;45812;-83
2023/05/12 02:46:36;;;;;;;;;2.67;2.00;;;;;-147.47;100.00;64613.53;4991303;28;45973;-82
2023/05/12 02:49:03;;;;;;;;;2.00;1.67;;;;;-147.47;100.00;64613.53;4996915;28;46980;-81
2023/05/12 02:51:29;;;;;;;;;1.67;1.67;;;;;-147.47;100.00;64613.53;5002235;28;45572;-81
2023/05/12 02:53:54;;;;;;;;;3.00;3.00;;;;;-147.47;100.00;64613.53;5012373;28;45907;-80
2023/05/12 02:56:21;;;;;;;;;3.67;2.67;;;;;-147.47;100.00;64613.53;5015859;28;45530;-81
2023/05/12 02:58:46;;;;;;;;;2.67;0.67;;;;;-147.47;100.00;64613.53;5012132;28;45438;-83
2023/05/12 03:01:13;;;;;;;;;3.00;2.67;;;;;-147.47;100.00;64613.53;5010809;28;45614;-82
2023/05/12 03:03:39;;;;;;;;;3.00;1.00;;;;;-147.47;100.00;64613.53;5011512;28;45451;-82
2023/05/12 03:06:04;;;;;;;;;3.33;2.67;;;;;-147.47;100.00;64613.53;5011461;28;45876;-81
2023/05/12 03:08:30;;;;;;;;;2.00;2.00;;;;;-147.47;100.00;64613.53;5011712;28;45541;-81
2023/05/12 03:10:56;;;;;;;;;3.00;2.67;;;;;-147.47;100.00;64613.53;5011114;28;45601;-81
2023/05/12 03:13:21;;;;;;;;;3.00;0.67;;;;;-147.47;100.00;64613.53;5012289;28;45617;-80
2023/05/12 03:15:47;;;;;;;;;2.33;1.67;;;;;-147.47;100.00;64613.53;5006048;28;45402;-80
2023/05/12 03:18:12;;;;;;;;;2.33;1.67;;;;;-147.47;100.00;64613.53;5011187;28;45791;-81
2023/05/12 03:20:38;;;;;;;;;4.00;1.33;;;;;-147.47;100.00;64613.53;5012576;28;45742;-83
2023/05/12 03:23:30;;;;;;;;;2.67;1.33;;;;;-147.47;100.00;64613.53;5012999;28;45503;-82
2023/05/12 03:25:56;;;;;;;;;1.67;1.67;;;;;-147.47;100.00;64613.53;4994748;28;45348;-84
2023/05/12 03:28:23;;;;;;;;;2.67;1.33;;;;;-147.47;100.00;64613.53;5009275;28;45469;-82
2023/05/12 03:30:58;;;;;;;;;2.67;1.67;;;;;-147.47;100.00;64613.53;5013322;28;45774;-85
2023/05/12 03:33:23;;;;;;;;;4.33;3.00;;;;;-147.47;100.00;64613.53;5011098;28;45574;-82
2023/05/12 03:35:56;;;;;;;;;2.00;2.00;;;;;-147.47;100.00;64613.53;5001529;28;46025;-83
2023/05/12 03:38:34;;;;;;;;;0.67;0.67;;;;;-147.47;100.00;64613.53;5012310;28;45681;-83
2023/05/12 03:41:04;;;;;;;;;3.00;1.33;;;;;-147.47;100.00;64613.53;5013483;28;45881;-82
2023/05/12 03:43:30;;;;;;;;;2.00;2.00;;;;;-147.47;100.00;64613.53;5017565;28;45905;-83
2023/05/12 03:45:56;;;;;;;;;3.00;3.00;;;;;-147.47;100.00;64613.53;5020506;28;45811;-84
2023/05/12 03:48:21;;;;;;;;;1.00;1.00;;;;;-147.47;100.00;64613.53;5016223;28;45438;-84
2023/05/12 03:50:47;;;;;;;;;2.33;1.67;;;;;-147.47;100.00;64613.53;5016946;28;45387;-81
2023/05/12 03:53:12;;;;;;;;;3.67;2.67;;;;;-147.47;100.00;64613.53;5012634;28;45454;-81
2023/05/12 03:55:39;;;;;;;;;4.67;2.67;;;;;-147.47;100.00;64613.53;5011702;28;45801;-80
2023/05/12 03:58:05;;;;;;;;;4.00;2.33;;;;;-147.47;100.00;64613.53;5007508;28;45778;-80
2023/05/12 04:00:31;;;;;;;;;2.33;2.33;;;;;-147.47;100.00;64613.53;5013517;28;45446;-85
2023/05/12 04:02:57;;;;;;;;;6.67;4.67;;;;;-147.47;100.00;64613.53;5013133;28;45690;-83
2023/05/12 04:05:22;;;;;;;;;1.67;1.67;;;;;-147.47;100.00;64613.53;4992292;28;45677;-83
2023/05/12 04:07:49;;;;;;;;;2.67;2.67;;;;;-147.47;100.00;64613.53;5012242;28;45507;-82
2023/05/12 04:10:15;;;;;;;;;1.33;1.33;;;;;-147.47;100.00;64613.53;5012606;28;45728;-82
2023/05/12 04:12:40;;;;;;;;;2.67;2.67;;;;;-147.47;100.00;64613.53;4996978;28;45470;-82
2023/05/12 04:15:06;;;;;;;;;2.33;2.33;;;;;-147.47;100.00;64613.53;5011062;28;45670;-84
2023/05/12 04:17:32;;;;;;;;;4.67;1.67;;;;;-147.47;100.00;64613.53;5009814;28;48048;-84
2023/05/12 04:19:58;;;;;;;;;3.00;2.00;;;;;-147.47;100.00;64613.53;5010776;28;45676;-84
2023/05/12 04:22:25;;;;;;;;;5.00;2.33;;;;;-147.47;100.00;64613.53;5015693;28;45777;-84
2023/05/12 04:24:51;;;;;;;;;4.00;2.00;;;;;-147.47;100.00;64613.53;4997207;28;45935;-84
2023/05/12 04:27:17;;;;;;;;;2.00;2.00;;;;;-147.47;100.00;64613.53;5010461;28;45846;-86
2023/05/12 04:29:42;;;;;;;;;3.67;3.67;;;;;-147.47;100.00;64613.53;5005948;28;45882;-83
2023/05/12 04:32:26;;;;;;;;;3.00;3.00;;;;;-147.47;100.00;64613.53;5009024;28;45462;-84
2023/05/12 04:34:55;;;;;;;;;5.00;2.00;;;;;-147.47;100.00;64613.53;4987384;28;45885;-85
2023/05/12 04:37:30;;;;;;;;;16.33;13.33;;;;;-147.47;100.00;64613.53;4996853;28;45536;-83
2023/05/12 04:39:58;;;;;;;;;2.00;2.00;;;;;-147.47;100.00;64613.53;5013179;28;45297;-83
2023/05/12 04:42:26;;;;;;;;;6.00;3.67;;;;;-147.47;100.00;64613.53;5018366;28;45716;-83
2023/05/12 04:44:53;;;;;;;;;16.33;13.00;;;;;-147.47;100.00;64613.53;5006133;28;46067;-83
2023/05/12 04:47:18;;;;;;;;;6.33;5.33;;;;;-147.47;100.00;64613.53;5013476;28;46265;-82
2023/05/12 04:49:46;;;;;;;;;5.33;4.67;;;;;-147.47;100.00;64613.53;5013052;28;45585;-83
2023/05/12 04:52:11;;;;;;;;;4.00;3.00;;;;;-147.47;100.00;64613.53;4996916;28;45661;-85
2023/05/12 04:54:37;;;;;;;;;13.00;8.67;;;;;-147.47;100.00;64613.53;5014119;28;45795;-82
2023/05/12 04:57:14;;;;;;;;;11.33;9.00;;;;;-147.47;100.00;64613.53;5014707;28;46761;-83
2023/05/12 04:59:41;;;;;;;;;6.00;5.00;;;;;-147.47;100.00;64613.53;4996364;28;45512;-83
2023/05/12 05:02:07;;;;;;;;;7.67;6.00;;;;;-147.47;100.00;64613.53;5014367;28;45415;-81
2023/05/12 05:04:45;;;;;;;;;4.33;4.33;;;;;-147.47;100.00;64613.53;5014198;28;45978;-83
2023/05/12 05:07:17;;;;;;;;;8.33;6.33;;;;;-147.47;100.00;64613.53;4995698;28;45689;-83
2023/05/12 05:09:51;;;;;;;;;6.00;6.00;;;;;-147.47;100.00;64613.53;5014185;28;45737;-85
2023/05/12 05:12:18;;;;;;;;;5.00;4.00;;;;;-147.47;100.00;64613.53;5014707;28;45909;-84
2023/05/12 05:14:44;;;;;;;;;6.00;5.67;;;;;-147.47;100.00;64613.53;5014898;28;45952;-84
2023/05/12 05:17:11;;;;;;;;;5.67;3.00;;;;;-147.47;100.00;64613.53;5004708;28;45532;-87
2023/05/12 05:19:39;;;;;;;;;10.00;7.33;;;;;-147.47;100.00;64613.53;5000243;28;45457;-88
2023/05/12 05:22:05;;;;;;;;;4.67;4.67;;;;;-147.47;100.00;64613.53;5013671;28;45740;-88
2023/05/12 05:24:32;;;;;;;;;4.67;3.00;;;;;-147.47;100.00;64613.53;5022304;28;45902;-86
2023/05/12 05:26:59;;;;;;;;;6.67;5.67;;;;;-147.47;100.00;64613.53;5029141;28;47105;-85
2023/05/12 05:29:25;;;;;;;;;3.67;3.00;;;;;-147.47;100.00;64613.53;5004302;28;45336;-86
2023/05/12 05:31:51;;;;;;;;;3.00;3.00;;;;;-147.47;100.00;64613.53;5021099;28;45395;-86
2023/05/12 05:34:27;;;;;;;;;10.33;7.67;;;;;-147.47;100.00;64613.53;5013469;28;45828;-91
2023/05/12 05:36:52;;;;;;;;;7.00;5.33;;;;;-147.47;100.00;64613.53;5011257;28;45483;-87
2023/05/12 05:39:17;;;;;;;;;4.67;3.67;;;;;-147.47;100.00;64613.53;4992921;28;45760;-85
2023/05/12 05:41:43;;;;;;;;;6.67;5.00;;;;;-147.47;100.00;64613.53;5013706;28;45536;-82
2023/05/12 05:44:08;;;;;;;;;7.33;4.00;;;;;-147.47;100.00;64613.53;5025297;28;45416;-80
2023/05/12 05:46:34;;;;;;;;;6.33;3.00;;;;;-147.47;100.00;64613.53;5012735;28;47229;-84
2023/05/12 05:48:59;;;;;;;;;4.33;3.67;;;;;-147.47;100.00;64613.53;5021067;28;45625;-86
2023/05/12 05:51:25;;;;;;;;;3.00;2.00;;;;;-147.47;100.00;64613.53;5013489;28;45471;-86
2023/05/12 05:53:50;;;;;;;;;6.33;4.00;;;;;-147.47;100.00;64613.53;5013287;28;45011;-85
2023/05/12 05:56:16;;;;;;;;;5.33;3.67;;;;;-147.47;100.00;64613.53;5025712;28;45483;-87
2023/05/12 05:58:41;;;;;;;;;10.00;7.00;;;;;-147.47;100.00;64613.53;4998843;28;45455;-87
2023/05/12 06:01:07;;;;;;;;;9.67;7.33;;;;;-147.47;100.00;64613.53;5011395;28;46438;-86
2023/05/12 06:03:33;;;;;;;;;8.33;6.33;;;;;-147.47;100.00;64613.53;5028044;28;45757;-85
2023/05/12 06:05:58;;;;;;;;;4.00;4.00;;;;;-147.47;100.00;64613.53;5021849;28;45546;-83
2023/05/12 06:08:23;;;;;;;;;5.00;3.67;;;;;-147.47;100.00;64613.53;5019645;28;45565;-83
2023/05/12 06:10:49;;;;;;;;;9.33;5.33;;;;;-147.47;100.00;64613.53;5016303;28;45627;-85
2023/05/12 06:13:14;;;;;;;;;5.33;4.67;;;;;-147.47;100.00;64613.53;5016551;28;45950;-84
2023/05/12 06:15:40;;;;;;;;;3.00;3.00;;;;;-147.47;100.00;64613.53;5017289;28;45452;-84
2023/05/12 06:18:06;;;;;;;;;5.67;5.00;;;;;-147.47;100.00;64613.53;5013517;28;45480;-83
2023/05/12 06:20:32;;;;;;;;;6.00;6.00;;;;;-147.47;100.00;64613.53;4995283;28;45940;-86
2023/05/12 06:22:57;;;;;;;;;5.00;5.00;;;;;-147.47;100.00;64613.53;5023386;28;45428;-85
2023/05/12 06:25:23;;;;;;;;;5.67;5.67;;;;;-147.47;100.00;64613.53;5020321;28;45830;-83
2023/05/12 06:27:54;;;;;;;;;3.67;3.33;;;;;-147.47;100.00;64613.53;5000806;28;45931;-82
2023/05/12 06:30:22;;;;;;;;;6.33;3.00;;;;;-147.47;100.00;64613.53;5016122;28;45049;-85
2023/05/12 06:32:48;;;;;;;;;3.00;3.00;;;;;-147.47;100.00;64613.53;5010527;28;45484;-83
2023/05/12 06:35:13;;;;;;;;;5.33;2.67;;;;;-147.47;100.00;64613.53;5019496;28;45746;-83
2023/05/12 06:37:39;;;;;;;;;7.33;2.67;;;;;-147.47;100.00;64613.53;5021982;28;45712;-86
2023/05/12 06:40:07;;;;;;;;;5.00;4.00;;;;;-147.47;100.00;64613.53;5002461;28;45430;-84
2023/05/12 06:42:33;;;;;;;;;7.67;4.00;;;;;-147.47;100.00;64613.53;5009866;28;46078;-84
2023/05/12 06:44:59;;;;;;;;;6.67;3.67;;;;;-147.47;100.00;64613.53;5014768;28;45497;-84
2023/05/12 06:47:25;;;;;;;;;5.50;4.00;;;;;-147.47;100.00;64613.53;5012835;28;46482;-85
2023/05/12 06:49:50;;;;;;;;;3.33;3.00;;;;;-147.47;100.00;64613.53;5008129;28;45424;-84
2023/05/12 06:52:16;;;;;;;;;4.25;3.25;;;;;-147.47;100.00;64613.53;4985141;28;46549;-84
2023/05/12 06:54:42;;;;;;;;;4.75;4.00;;;;;-147.47;100.00;64613.53;5019073;28;45862;-84
2023/05/12 06:57:08;;;;;;;;;0.00;0.00;;;;;-147.47;100.00;64613.53;5013834;28;45430;-83
2023/05/12 06:59:34;;;;;;;;;5.33;5.00;;;;;-147.47;100.00;64613.53;5013748;28;46091;-82
2023/05/12 07:01:59;;;;;;;;;5.75;4.00;;;;;-147.47;100.00;64613.53;4996581;28;45542;-84
2023/05/12 07:04:25;;;;;;;;;2.50;2.50;;;;;-147.47;100.00;64613.53;5011800;28;45671;-82
2023/05/12 07:06:51;;;;;;;;;3.50;3.50;;;;;-147.47;100.00;64613.53;5008652;28;45460;-82
2023/05/12 07:09:17;;;;;;;;;3.75;2.75;;;;;-147.47;100.00;64613.53;4989717;28;45812;-83
2023/05/12 07:11:43;;;;;;;;;6.00;2.75;;;;;-147.47;100.00;64613.53;5012266;28;45756;-81
2023/05/12 07:14:08;;;;;;;;;2.00;1.00;;;;;-147.47;100.00;64613.53;5012162;28;45620;-83
2023/05/12 07:16:34;;;;;;;;;1.00;1.00;;;;;-147.47;100.00;64613.53;5010667;28;45795;-83
2023/05/12 07:18:59;;;;;;;;;2.00;2.00;;;;;-147.47;100.00;64613.53;4994137;28;45809;-83
2023/05/12 07:21:24;;;;;;;;;3.25;2.00;;;;;-147.47;100.00;64613.53;4999147;28;45716;-84
2023/05/12 07:23:53;;;;;;;;;1.50;1.00;;;;;-147.47;100.00;64613.53;5010455;28;46622;-83
2023/05/12 07:26:18;;;;;;;;;2.50;1.00;;;;;-147.47;100.00;64613.53;5013956;28;45806;-84
2023/05/12 07:28:43;;;;;;;;;2.25;2.25;;;;;-147.47;100.00;64613.53;5010379;28;45926;-83
2023/05/12 07:31:09;;;;;;;;;2.00;1.00;;;;;-147.47;100.00;64613.53;5008835;28;45835;-83
2023/05/12 07:33:35;;;;;;;;;3.75;2.75;;;;;-147.47;100.00;64613.53;5009151;28;45881;-83
2023/05/12 07:36:01;;;;;;;;;1.25;1.25;;;;;-147.47;100.00;64613.53;5009360;28;45863;-80
2023/05/12 07:38:27;;;;;;;;;2.00;0.75;;;;;-147.47;100.00;64613.53;5009614;28;45818;-83
2023/05/12 07:40:54;;;;;;;;;1.50;1.00;;;;;-147.47;100.00;64613.53;5004173;28;45946;-82
2023/05/12 07:43:20;;;;;;;;;5.00;4.00;;;;;-147.47;100.00;64613.53;4994707;28;46175;-83
2023/05/12 07:45:46;;;;;;;;;9.75;8.75;;;;;-147.47;100.00;64613.53;4999655;28;45473;-85
2023/05/12 07:48:12;;;;;;;;;3.00;2.25;;;;;-147.47;100.00;64613.53;5010040;28;45924;-81
2023/05/12 07:50:37;;;;;;;;;4.00;3.00;;;;;-147.47;100.00;64613.53;5009523;28;45725;-82
2023/05/12 07:53:03;;;;;;;;;5.25;3.75;;;;;-147.47;100.00;64613.53;5009990;28;46898;-82
2023/05/12 07:55:29;;;;;;;;;7.50;5.25;;;;;-147.47;100.00;64613.53;5010621;28;45411;-83
2023/05/12 07:57:54;;;;;;;;;6.50;5.50;;;;;-147.47;100.00;64613.53;5011230;28;45491;-81
2023/05/12 08:00:20;;;;;;;;;3.75;2.50;;;;;-147.47;100.00;64613.53;5009583;28;45577;-81
2023/05/12 08:02:46;;;;;;;;;8.75;6.50;;;;;-147.47;100.00;64613.53;5010821;28;45818;-81
2023/05/12 08:05:11;;;;;;;;;4.50;3.75;;;;;-147.47;100.00;64613.53;5010506;28;45814;-81
2023/05/12 08:07:38;;;;;;;;;5.00;4.00;;;;;-147.47;100.00;64613.53;5010014;28;45485;-82
2023/05/12 08:10:05;;;;;;;;;4.75;3.00;;;;;-147.47;100.00;64613.53;5012144;28;45884;-82
2023/05/12 08:12:32;;;;;;;;;3.25;3.25;;;;;-147.47;100.00;64613.53;4998311;28;45601;-81
2023/05/12 08:14:57;;;;;;;;;3.00;2.25;;;;;-147.47;100.00;64613.53;5013074;28;45770;-82
2023/05/12 08:17:23;;;;;;;;;4.25;2.00;;;;;-147.47;100.00;64613.53;5012216;28;45836;-81
2023/05/12 08:19:49;;;;;;;;;4.75;3.75;;;;;-147.47;100.00;64613.53;5013764;28;45641;-82
2023/05/12 08:22:15;;;;;;;;;2.75;2.00;;;;;-147.47;100.00;64613.53;5007291;28;46486;-81
2023/05/12 08:24:40;;;;;;;;;3.00;1.50;;;;;-147.47;100.00;64613.53;5022284;28;45690;-82
2023/05/12 08:27:05;;;;;;;;;3.75;3.50;;;;;-147.47;100.00;64613.53;5005907;28;46142;-83
2023/05/12 08:29:32;;;;;;;;;6.50;4.00;;;;;-147.47;100.00;64613.53;5013801;28;45787;-83
2023/05/12 08:31:58;;;;;;;;;4.00;3.00;;;;;-147.47;100.00;64613.53;5011911;28;46384;-81
2023/05/12 08:34:24;;;;;;;;;4.25;3.00;;;;;-147.47;100.00;64613.53;5013062;28;45691;-82
2023/05/12 08:36:54;;;;;;;;;1.00;1.00;;;;;-147.47;100.00;64613.53;5010161;28;45481;-79
2023/05/12 08:39:20;;;;;;;;;5.25;4.00;;;;;-147.47;100.00;64613.53;5010739;28;45802;-81
2023/05/12 08:41:57;;;;;;;;;6.25;4.50;;;;;-147.47;100.00;64613.53;5010512;28;45775;-81
2023/05/12 08:44:24;;;;;;;;;5.67;4.33;;;;;-147.47;100.00;64613.53;5011152;28;46443;-80
2023/05/12 08:46:53;;;;;;;;;3.67;2.67;;;;;-147.47;100.00;64613.53;5007196;28;45384;-79
2023/05/12 08:49:21;;;;;;;;;7.33;5.67;;;;;-147.47;100.00;64613.53;5007732;28;45849;-79
2023/05/12 08:51:48;;;;;;;;;5.00;3.67;;;;;-147.47;100.00;64613.53;5006372;28;45764;-80
2023/05/12 08:54:16;;;;;;;;;4.67;4.67;;;;;-147.47;100.00;64613.53;4992218;28;45560;-79
2023/05/12 08:56:44;;;;;;;;;6.33;6.00;;;;;-147.47;100.00;64613.53;5013722;28;45868;-79
2023/05/12 08:59:10;;;;;;;;;5.67;4.67;;;;;-147.47;100.00;64613.53;5012791;28;44925;-79
2023/05/12 09:01:35;;;;;;;;;7.00;5.33;;;;;-147.47;100.00;64613.53;5015969;28;46428;-78
2023/05/12 09:04:04;;;;;;;;;6.67;6.67;;;;;-147.47;100.00;64613.53;5020062;28;45796;-79
2023/05/12 09:06:31;;;;;;;;;9.67;8.33;;;;;-147.47;100.00;64613.53;5017191;28;45677;-79
2023/05/12 09:08:57;;;;;;;;;11.33;9.33;;;;;-147.47;100.00;64613.53;5017094;28;45162;-79
2023/05/12 09:11:23;;;;;;;;;6.33;5.00;;;;;-147.47;100.00;64613.53;5015962;28;46242;-78
2023/05/12 09:14:02;;;;;;;;;12.00;8.67;;;;;-147.47;100.00;64613.53;5021872;28;45750;-79
2023/05/12 09:16:49;;;;;;;;;10.33;9.00;;;;;-147.47;100.00;64613.53;5028306;28;45413;-80
2023/05/12 09:19:19;;;;;;;;;10.33;9.67;;;;;-147.47;100.00;64613.53;5004318;28;45472;-78
2023/05/12 09:21:46;;;;;;;;;6.67;6.67;;;;;-147.47;100.00;64613.53;4999458;28;48298;-79
2023/05/12 09:24:11;;;;;;;;;8.00;8.00;;;;;-147.47;100.00;64613.53;5016140;28;45953;-80
2023/05/12 09:26:46;;;;;;;;;12.33;9.33;;;;;-147.47;100.00;64613.53;5015547;28;45931;-80
2023/05/12 09:29:12;;;;;;;;;12.67;10.67;;;;;-147.47;100.00;64613.53;4997607;28;45893;-81
2023/05/12 09:31:50;;;;;;;;;13.00;11.67;;;;;-147.47;100.00;64613.53;5012149;28;46218;-81
2023/05/12 09:34:15;;;;;;;;;10.67;10.67;;;;;-147.47;100.00;64613.53;5016724;28;45889;-80
2023/05/12 09:36:41;;;;;;;;;9.00;9.00;;;;;-147.47;100.00;64613.53;5000718;28;45470;-79
2023/05/12 09:39:09;;;;;;;;;9.67;9.67;;;;;-147.47;100.00;64613.53;5003022;28;45748;-79
2023/05/12 09:41:35;;;;;;;;;11.33;11.33;;;;;-147.47;100.00;64613.53;5010471;28;45567;-77
2023/05/12 09:44:01;;;;;;;;;10.00;8.67;;;;;-147.47;100.00;64613.53;5009428;28;45562;-76
2023/05/12 09:46:26;;;;;;;;;9.67;9.00;;;;;-147.47;100.00;64613.53;5010395;28;45796;-76
2023/05/12 09:48:55;;;;;;;;;14.00;11.00;;;;;-147.47;100.00;64613.53;5010873;28;45851;-76
2023/05/12 09:51:21;;;;;;;;;10.00;7.33;;;;;-147.47;100.00;64613.53;4991267;28;46448;-77
2023/05/12 09:53:47;;;;;;;;;7.67;6.00;;;;;-147.47;100.00;64613.53;4991367;28;45862;-78
2023/05/12 09:56:13;;;;;;;;;7.00;5.67;;;;;-147.47;100.00;64613.53;5009458;28;45831;-76
2023/05/12 09:58:44;;;;;;;;;5.00;5.00;;;;;-147.47;100.00;64613.53;4993007;28;47148;-76
2023/05/12 10:01:17;;;;;;;;;6.33;6.33;;;;;-147.47;100.00;64613.53;5007998;28;45516;-76
2023/05/12 10:03:47;;;;;;;;;4.00;3.67;;;;;-147.47;100.00;64613.53;5010274;28;45829;-77
2023/05/12 10:06:25;;;;;;;;;4.67;4.67;;;;;-147.47;100.00;64613.53;5007200;28;45945;-77
2023/05/12 10:09:24;;;;;;;;;4.67;3.00;;;;;-147.47;100.00;64613.53;4997829;28;45588;-77
2023/05/12 10:11:55;;;;;;;;;4.00;4.00;;;;;-147.47;100.00;64613.53;4987005;28;47625;-77
2023/05/12 10:14:21;;;;;;;;;5.33;4.33;;;;;-147.47;100.00;64613.53;5000838;28;45992;-79
2023/05/12 10:16:48;;;;;;;;;6.00;5.00;;;;;-147.47;100.00;64613.53;5010905;28;45517;-80
2023/05/12 10:19:14;;;;;;;;;3.33;2.33;;;;;-147.47;100.00;64613.53;5008640;28;47207;-77
2023/05/12 10:21:42;;;;;;;;;4.00;4.00;;;;;-147.47;100.00;64613.53;5007306;28;46417;-77
2023/05/12 10:24:07;;;;;;;;;4.67;3.00;;;;;-147.47;100.00;64613.53;4990428;28;45975;-73
2023/05/12 10:26:34;;;;;;;;;3.00;3.00;;;;;-147.47;100.00;64613.53;5008268;28;45650;-74
2023/05/12 10:29:00;;;;;;;;;4.00;2.67;;;;;-147.47;100.00;64613.53;5009899;28;45879;-76
2023/05/12 10:31:26;;;;;;;;;6.33;3.67;;;;;-147.47;100.00;64613.53;5012873;28;48134;-76
2023/05/12 10:33:59;;;;;;;;;3.33;3.33;;;;;-147.47;100.00;64613.53;5008130;28;45779;-76
2023/05/12 10:36:25;;;;;;;;;4.00;3.67;;;;;-147.47;100.00;64613.53;5005619;28;45510;-78
2023/05/12 10:38:51;;;;;;;;;4.00;4.00;;;;;-147.47;100.00;64613.53;5002667;28;45823;-76
2023/05/12 10:41:28;;;;;;;;;5.00;4.00;;;;;-147.47;100.00;64613.53;5003923;28;45794;-79
2023/05/12 10:43:54;;;;;;;;;5.33;4.00;;;;;-147.47;100.00;64613.53;5009472;28;45840;-78
2023/05/12 10:46:21;;;;;;;;;3.00;3.00;;;;;-147.47;100.00;64613.53;5001398;28;46189;-75
2023/05/12 10:49:03;;;;;;;;;3.33;3.00;;;;;-147.47;100.00;64613.53;5003787;28;45793;-74
2023/05/12 10:51:30;;;;;;;;;5.00;4.00;;;;;-147.47;100.00;64613.53;5009077;28;45589;-75
2023/05/12 10:54:04;;;;;;;;;2.00;1.00;;;;;-147.47;100.00;64613.53;5007084;28;45603;-79
2023/05/12 10:56:42;;;;;;;;;2.75;2.75;;;;;-147.47;100.00;64613.53;4999263;28;45411;-78
2023/05/12 10:59:27;;;;;;;;;4.00;4.00;;;;;-147.47;100.00;64613.53;4988765;28;46789;-78
2023/05/12 11:01:59;;;;;;;;;8.00;6.67;;;;;-147.47;100.00;64613.53;4984442;28;46919;-75
2023/05/12 11:05:02;;;;;;;;;9.67;7.33;;;;;-147.47;100.00;64613.53;5007101;28;45756;-81
2023/05/12 11:07:30;;;;;;;;;4.33;3.00;;;;;-147.47;100.00;64613.53;4996324;28;45766;-78
2023/05/12 11:09:58;;;;;;;;;6.00;6.00;;;;;-147.47;100.00;64613.53;5009511;28;45870;-79